sensor_id;sensor_type;location;lat;lon;timestamp;pressure;altitude;pressure_sealevel;temperature;humidity
7930;BME280;4010;42.698;23.124;2023-03-01T00:02:15;118349.16;;;-140.64;100.00
7930;BME280;4010;42.698;23.124;2023-03-01T00:04:43;118349.16;;;-140.64;100.00
7930;BME280;4010;42.698;23.124;2023-03-01T00:07:10;118349.16;;;-140.64;100.00
7930;BME280;4010;42.698;23.124;2023-03-01T00:09:37;118349.16;;;-140.64;100.00
7930;BME280;4010;42.698;23.124;2023-03-01T00:12:06;118349.16;;;-140.64;100.00
7930;BME280;4010;42.698;23.124;2023-03-01T00:14:32;118349.16;;;-140.64;100.00
7930;BME280;4010;42.698;23.124;2023-03-01T00:16:59;118349.16;;;-140.64;100.00
7930;BME280;4010;42.698;23.124;2023-03-01T00:19:27;118349.16;;;-140.64;100.00
7930;BME280;4010;42.698;23.124;2023-03-01T00:21:55;118349.16;;;-140.64;100.00
7930;BME280;4010;42.698;23.124;2023-03-01T00:24:21;118349.16;;;-140.64;100.00
7930;BME280;4010;42.698;23.124;2023-03-01T00:26:48;118349.16;;;-140.64;100.00
7930;BME280;4010;42.698;23.124;2023-03-01T00:29:15;118349.16;;;-140.64;100.00
7930;BME280;4010;42.698;23.124;2023-03-01T00:31:41;118349.16;;;-140.64;100.00
7930;BME280;4010;42.698;23.124;2023-03-01T00:34:09;118349.16;;;-140.64;100.00
7930;BME280;4010;42.698;23.124;2023-03-01T00:36:36;118349.16;;;-140.64;100.00
7930;BME280;4010;42.698;23.124;2023-03-01T00:39:09;118349.16;;;-140.64;100.00
7930;BME280;4010;42.698;23.124;2023-03-01T00:41:36;118349.16;;;-140.64;100.00
7930;BME280;4010;42.698;23.124;2023-03-01T00:44:03;118349.16;;;-140.64;100.00
7930;BME280;4010;42.698;23.124;2023-03-01T00:46:30;118349.16;;;-140.64;100.00
7930;BME280;4010;42.698;23.124;2023-03-01T00:48:56;118349.16;;;-140.64;100.00
7930;BME280;4010;42.698;23.124;2023-03-01T00:51:24;118349.16;;;-140.64;100.00
7930;BME280;4010;42.698;23.124;2023-03-01T00:53:52;118349.16;;;-140.64;100.00
7930;BME280;4010;42.698;23.124;2023-03-01T00:56:21;118349.16;;;-140.64;100.00
7930;BME280;4010;42.698;23.124;2023-03-01T00:58:48;118349.16;;;-140.64;100.00
7930;BME280;4010;42.698;23.124;2023-03-01T01:01:17;118349.16;;;-140.64;100.00
7930;BME280;4010;42.698;23.124;2023-03-01T01:03:45;118349.16;;;-140.64;100.00
7930;BME280;4010;42.698;23.124;2023-03-01T01:06:16;118349.16;;;-140.64;100.00
7930;BME280;4010;42.698;23.124;2023-03-01T01:08:43;118349.16;;;-140.64;100.00
7930;BME280;4010;42.698;23.124;2023-03-01T01:11:10;118349.16;;;-140.64;100.00
7930;BME280;4010;42.698;23.124;2023-03-01T01:13:39;118349.16;;;-140.64;100.00
7930;BME280;4010;42.698;23.124;2023-03-01T01:16:06;118349.16;;;-140.64;100.00
7930;BME280;4010;42.698;23.124;2023-03-01T01:18:33;118349.16;;;-140.64;100.00
7930;BME280;4010;42.698;23.124;2023-03-01T01:21:04;118349.16;;;-140.64;100.00
7930;BME280;4010;42.698;23.124;2023-03-01T01:23:31;118349.16;;;-140.64;100.00
7930;BME280;4010;42.698;23.124;2023-03-01T01:26:03;118349.16;;;-140.64;100.00
7930;BME280;4010;42.698;23.124;2023-03-01T01:28:30;118349.16;;;-140.64;100.00
7930;BME280;4010;42.698;23.124;2023-03-01T01:30:58;118349.16;;;-140.64;100.00
7930;BME280;4010;42.698;23.124;2023-03-01T01:33:25;118349.16;;;-140.64;100.00
7930;BME280;4010;42.698;23.124;2023-03-01T01:35:52;118349.16;;;-140.64;100.00
7930;BME280;4010;42.698;23.124;2023-03-01T01:38:19;118349.16;;;-140.64;100.00
7930;BME280;4010;42.698;23.124;2023-03-01T01:40:47;118349.16;;;-140.64;100.00
7930;BME280;4010;42.698;23.124;2023-03-01T01:43:19;118349.16;;;-140.64;100.00
7930;BME280;4010;42.698;23.124;2023-03-01T01:45:47;118349.16;;;-140.64;100.00
7930;BME280;4010;42.698;23.124;2023-03-01T01:48:19;118349.16;;;-140.64;100.00
7930;BME280;4010;42.698;23.124;2023-03-01T01:50:56;118349.16;;;-140.64;100.00
7930;BME280;4010;42.698;23.124;2023-03-01T01:53:26;118349.16;;;-140.64;100.00
7930;BME280;4010;42.698;23.124;2023-03-01T01:55:56;118349.16;;;-140.64;100.00
7930;BME280;4010;42.698;23.124;2023-03-01T01:58:27;118349.16;;;-140.64;100.00
7930;BME280;4010;42.698;23.124;2023-03-01T02:00:56;118349.16;;;-140.64;100.00
7930;BME280;4010;42.698;23.124;2023-03-01T02:03:26;118349.16;;;-140.64;100.00
7930;BME280;4010;42.698;23.124;2023-03-01T02:05:59;118349.16;;;-140.64;100.00
7930;BME280;4010;42.698;23.124;2023-03-01T02:08:30;118349.16;;;-140.64;100.00
7930;BME280;4010;42.698;23.124;2023-03-01T02:10:58;118349.16;;;-140.64;100.00
7930;BME280;4010;42.698;23.124;2023-03-01T02:13:26;118349.16;;;-140.64;100.00
7930;BME280;4010;42.698;23.124;2023-03-01T02:15:53;118349.16;;;-140.64;100.00
7930;BME280;4010;42.698;23.124;2023-03-01T02:18:21;118349.16;;;-140.64;100.00
7930;BME280;4010;42.698;23.124;2023-03-01T02:20:59;118349.16;;;-140.64;100.00
7930;BME280;4010;42.698;23.124;2023-03-01T02:23:29;118349.16;;;-140.64;100.00
7930;BME280;4010;42.698;23.124;2023-03-01T02:26:01;118349.16;;;-140.64;100.00
7930;BME280;4010;42.698;23.124;2023-03-01T02:28:35;118349.16;;;-140.64;100.00
7930;BME280;4010;42.698;23.124;2023-03-01T02:31:05;118349.16;;;-140.64;100.00
7930;BME280;4010;42.698;23.124;2023-03-01T02:33:51;118349.16;;;-140.64;100.00
7930;BME280;4010;42.698;23.124;2023-03-01T02:36:21;118349.16;;;-140.64;100.00
7930;BME280;4010;42.698;23.124;2023-03-01T02:38:52;118349.16;;;-140.64;100.00
7930;BME280;4010;42.698;23.124;2023-03-01T02:41:20;118349.16;;;-140.64;100.00
7930;BME280;4010;42.698;23.124;2023-03-01T02:43:49;118349.16;;;-140.64;100.00
7930;BME280;4010;42.698;23.124;2023-03-01T02:46:19;118349.16;;;-140.64;100.00
7930;BME280;4010;42.698;23.124;2023-03-01T02:48:47;118349.16;;;-140.64;100.00
7930;BME280;4010;42.698;23.124;2023-03-01T02:51:25;118349.16;;;-140.64;100.00
7930;BME280;4010;42.698;23.124;2023-03-01T02:54:01;118349.16;;;-140.64;100.00
7930;BME280;4010;42.698;23.124;2023-03-01T02:56:34;118349.16;;;-140.64;100.00
7930;BME280;4010;42.698;23.124;2023-03-01T02:59:02;118349.16;;;-140.64;100.00
7930;BME280;4010;42.698;23.124;2023-03-01T03:01:29;118349.16;;;-140.64;100.00
7930;BME280;4010;42.698;23.124;2023-03-01T03:04:03;118349.16;;;-140.64;100.00
7930;BME280;4010;42.698;23.124;2023-03-01T03:06:29;118349.16;;;-140.64;100.00
7930;BME280;4010;42.698;23.124;2023-03-01T03:08:56;118349.16;;;-140.64;100.00
7930;BME280;4010;42.698;23.124;2023-03-01T03:11:23;118349.16;;;-140.64;100.00
7930;BME280;4010;42.698;23.124;2023-03-01T03:13:49;118349.16;;;-140.64;100.00
7930;BME280;4010;42.698;23.124;2023-03-01T03:16:18;118349.16;;;-140.64;100.00
7930;BME280;4010;42.698;23.124;2023-03-01T03:18:46;118349.16;;;-140.64;100.00
7930;BME280;4010;42.698;23.124;2023-03-01T03:21:13;118349.16;;;-140.64;100.00
7930;BME280;4010;42.698;23.124;2023-03-01T03:23:39;118349.16;;;-140.64;100.00
7930;BME280;4010;42.698;23.124;2023-03-01T03:26:06;118349.16;;;-140.64;100.00
7930;BME280;4010;42.698;23.124;2023-03-01T03:28:34;118349.16;;;-140.64;100.00
7930;BME280;4010;42.698;23.124;2023-03-01T03:31:06;118349.16;;;-140.64;100.00
7930;BME280;4010;42.698;23.124;2023-03-01T03:33:34;118349.16;;;-140.64;100.00
7930;BME280;4010;42.698;23.124;2023-03-01T03:36:01;118349.16;;;-140.64;100.00
7930;BME280;4010;42.698;23.124;2023-03-01T03:38:27;118349.16;;;-140.64;100.00
7930;BME280;4010;42.698;23.124;2023-03-01T03:41:00;118349.16;;;-140.64;100.00
7930;BME280;4010;42.698;23.124;2023-03-01T03:43:28;118349.16;;;-140.64;100.00
7930;BME280;4010;42.698;23.124;2023-03-01T03:45:55;118349.16;;;-140.64;100.00
7930;BME280;4010;42.698;23.124;2023-03-01T03:48:23;118349.16;;;-140.64;100.00
7930;BME280;4010;42.698;23.124;2023-03-01T03:50:53;118349.16;;;-140.64;100.00
7930;BME280;4010;42.698;23.124;2023-03-01T03:53:22;118349.16;;;-140.64;100.00
7930;BME280;4010;42.698;23.124;2023-03-01T03:58:34;118349.16;;;-140.64;100.00
7930;BME280;4010;42.698;23.124;2023-03-01T04:01:01;118349.16;;;-140.64;100.00
7930;BME280;4010;42.698;23.124;2023-03-01T04:03:29;118349.16;;;-140.64;100.00
7930;BME280;4010;42.698;23.124;2023-03-01T04:05:59;118349.16;;;-140.64;100.00
7930;BME280;4010;42.698;23.124;2023-03-01T04:08:26;118349.16;;;-140.64;100.00
7930;BME280;4010;42.698;23.124;2023-03-01T04:10:58;118349.16;;;-140.64;100.00
7930;BME280;4010;42.698;23.124;2023-03-01T04:13:26;118349.16;;;-140.64;100.00
7930;BME280;4010;42.698;23.124;2023-03-01T04:15:53;118349.16;;;-140.64;100.00
7930;BME280;4010;42.698;23.124;2023-03-01T04:18:21;118349.16;;;-140.64;100.00
7930;BME280;4010;42.698;23.124;2023-03-01T04:20:49;118349.16;;;-140.64;100.00
7930;BME280;4010;42.698;23.124;2023-03-01T04:23:19;118349.16;;;-140.64;100.00
7930;BME280;4010;42.698;23.124;2023-03-01T04:25:48;118349.16;;;-140.64;100.00
7930;BME280;4010;42.698;23.124;2023-03-01T04:28:19;118349.16;;;-140.64;100.00
7930;BME280;4010;42.698;23.124;2023-03-01T04:30:46;118349.16;;;-140.64;100.00
7930;BME280;4010;42.698;23.124;2023-03-01T04:33:12;118349.16;;;-140.64;100.00
7930;BME280;4010;42.698;23.124;2023-03-01T04:35:39;118349.16;;;-140.64;100.00
7930;BME280;4010;42.698;23.124;2023-03-01T04:38:06;118349.16;;;-140.64;100.00
7930;BME280;4010;42.698;23.124;2023-03-01T04:40:35;118349.16;;;-140.64;100.00
7930;BME280;4010;42.698;23.124;2023-03-01T04:43:02;118349.16;;;-140.64;100.00
7930;BME280;4010;42.698;23.124;2023-03-01T04:45:29;118349.16;;;-140.64;100.00
7930;BME280;4010;42.698;23.124;2023-03-01T04:47:57;118349.16;;;-140.64;100.00
7930;BME280;4010;42.698;23.124;2023-03-01T04:50:24;118349.16;;;-140.64;100.00
7930;BME280;4010;42.698;23.124;2023-03-01T04:52:52;118349.16;;;-140.64;100.00
7930;BME280;4010;42.698;23.124;2023-03-01T04:55:19;118349.16;;;-140.64;100.00
7930;BME280;4010;42.698;23.124;2023-03-01T04:57:47;118349.16;;;-140.64;100.00
7930;BME280;4010;42.698;23.124;2023-03-01T05:00:14;118349.16;;;-140.64;100.00
7930;BME280;4010;42.698;23.124;2023-03-01T05:02:51;118349.16;;;-140.64;100.00
7930;BME280;4010;42.698;23.124;2023-03-01T05:05:20;118349.16;;;-140.64;100.00
7930;BME280;4010;42.698;23.124;2023-03-01T05:07:54;118349.16;;;-140.64;100.00
7930;BME280;4010;42.698;23.124;2023-03-01T05:10:22;118349.16;;;-140.64;100.00
7930;BME280;4010;42.698;23.124;2023-03-01T05:12:50;118349.16;;;-140.64;100.00
7930;BME280;4010;42.698;23.124;2023-03-01T05:15:18;118349.16;;;-140.64;100.00
7930;BME280;4010;42.698;23.124;2023-03-01T05:17:47;118349.16;;;-140.64;100.00
7930;BME280;4010;42.698;23.124;2023-03-01T05:20:14;118349.16;;;-140.64;100.00
7930;BME280;4010;42.698;23.124;2023-03-01T05:22:40;118349.16;;;-140.64;100.00
7930;BME280;4010;42.698;23.124;2023-03-01T05:25:07;118349.16;;;-140.64;100.00
7930;BME280;4010;42.698;23.124;2023-03-01T05:27:34;118349.16;;;-140.64;100.00
7930;BME280;4010;42.698;23.124;2023-03-01T05:30:03;118349.16;;;-140.64;100.00
7930;BME280;4010;42.698;23.124;2023-03-01T05:32:40;118349.16;;;-140.64;100.00
7930;BME280;4010;42.698;23.124;2023-03-01T05:35:08;118349.16;;;-140.64;100.00
7930;BME280;4010;42.698;23.124;2023-03-01T05:37:39;118349.16;;;-140.64;100.00
7930;BME280;4010;42.698;23.124;2023-03-01T05:40:07;118349.16;;;-140.64;100.00
7930;BME280;4010;42.698;23.124;2023-03-01T05:42:42;118349.16;;;-140.64;100.00
7930;BME280;4010;42.698;23.124;2023-03-01T05:45:11;118349.16;;;-140.64;100.00
7930;BME280;4010;42.698;23.124;2023-03-01T05:47:39;118349.16;;;-140.64;100.00
7930;BME280;4010;42.698;23.124;2023-03-01T05:50:13;118349.16;;;-140.64;100.00
7930;BME280;4010;42.698;23.124;2023-03-01T05:52:45;118349.16;;;-140.64;100.00
7930;BME280;4010;42.698;23.124;2023-03-01T05:55:12;118349.16;;;-140.64;100.00
7930;BME280;4010;42.698;23.124;2023-03-01T05:57:38;118349.16;;;-140.64;100.00
7930;BME280;4010;42.698;23.124;2023-03-01T06:00:07;118349.16;;;-140.64;100.00
7930;BME280;4010;42.698;23.124;2023-03-01T06:02:36;118349.16;;;-140.64;100.00
7930;BME280;4010;42.698;23.124;2023-03-01T06:05:03;118349.16;;;-140.64;100.00
7930;BME280;4010;42.698;23.124;2023-03-01T06:07:31;118349.16;;;-140.64;100.00
7930;BME280;4010;42.698;23.124;2023-03-01T06:09:57;118349.16;;;-140.64;100.00
7930;BME280;4010;42.698;23.124;2023-03-01T06:12:24;118349.16;;;-140.64;100.00
7930;BME280;4010;42.698;23.124;2023-03-01T06:14:51;118349.16;;;-140.64;100.00
7930;BME280;4010;42.698;23.124;2023-03-01T06:17:17;118349.16;;;-140.64;100.00
7930;BME280;4010;42.698;23.124;2023-03-01T06:19:46;118349.16;;;-140.64;100.00
7930;BME280;4010;42.698;23.124;2023-03-01T06:22:12;118349.16;;;-140.64;100.00
7930;BME280;4010;42.698;23.124;2023-03-01T06:24:39;118349.16;;;-140.64;100.00
7930;BME280;4010;42.698;23.124;2023-03-01T06:27:06;118349.16;;;-140.64;100.00
7930;BME280;4010;42.698;23.124;2023-03-01T06:29:33;118349.16;;;-140.64;100.00
7930;BME280;4010;42.698;23.124;2023-03-01T06:32:00;118349.16;;;-140.64;100.00
7930;BME280;4010;42.698;23.124;2023-03-01T06:34:26;118349.16;;;-140.64;100.00
7930;BME280;4010;42.698;23.124;2023-03-01T06:36:54;118349.16;;;-140.64;100.00
7930;BME280;4010;42.698;23.124;2023-03-01T06:39:21;118349.16;;;-140.64;100.00
7930;BME280;4010;42.698;23.124;2023-03-01T06:41:48;118349.16;;;-140.64;100.00
7930;BME280;4010;42.698;23.124;2023-03-01T06:44:15;118349.16;;;-140.64;100.00
7930;BME280;4010;42.698;23.124;2023-03-01T06:46:41;118349.16;;;-140.64;100.00
7930;BME280;4010;42.698;23.124;2023-03-01T06:49:08;118349.16;;;-140.64;100.00
7930;BME280;4010;42.698;23.124;2023-03-01T06:51:35;118349.16;;;-140.64;100.00
7930;BME280;4010;42.698;23.124;2023-03-01T06:54:04;118349.16;;;-140.64;100.00
7930;BME280;4010;42.698;23.124;2023-03-01T06:56:31;118349.16;;;-140.64;100.00
7930;BME280;4010;42.698;23.124;2023-03-01T06:58:58;118349.16;;;-140.64;100.00
7930;BME280;4010;42.698;23.124;2023-03-01T07:01:25;118349.16;;;-140.64;100.00
7930;BME280;4010;42.698;23.124;2023-03-01T07:03:52;118349.16;;;-140.64;100.00
7930;BME280;4010;42.698;23.124;2023-03-01T07:06:18;118349.16;;;-140.64;100.00
7930;BME280;4010;42.698;23.124;2023-03-01T07:08:45;118349.16;;;-140.64;100.00
7930;BME280;4010;42.698;23.124;2023-03-01T07:11:13;118349.16;;;-140.64;100.00
7930;BME280;4010;42.698;23.124;2023-03-01T07:13:40;118349.16;;;-140.64;100.00
7930;BME280;4010;42.698;23.124;2023-03-01T07:16:07;118349.16;;;-140.64;100.00
7930;BME280;4010;42.698;23.124;2023-03-01T07:18:34;118349.16;;;-140.64;100.00
7930;BME280;4010;42.698;23.124;2023-03-01T07:21:04;118349.16;;;-140.64;100.00
7930;BME280;4010;42.698;23.124;2023-03-01T07:23:31;118349.16;;;-140.64;100.00
7930;BME280;4010;42.698;23.124;2023-03-01T07:25:58;118349.16;;;-140.64;100.00
7930;BME280;4010;42.698;23.124;2023-03-01T07:28:27;118349.16;;;-140.64;100.00
7930;BME280;4010;42.698;23.124;2023-03-01T07:30:54;118349.16;;;-140.64;100.00
7930;BME280;4010;42.698;23.124;2023-03-01T07:33:21;118349.16;;;-140.64;100.00
7930;BME280;4010;42.698;23.124;2023-03-01T07:35:48;118349.16;;;-140.64;100.00
7930;BME280;4010;42.698;23.124;2023-03-01T07:38:14;118349.16;;;-140.64;100.00
7930;BME280;4010;42.698;23.124;2023-03-01T07:40:41;118349.16;;;-140.64;100.00
7930;BME280;4010;42.698;23.124;2023-03-01T07:43:08;118349.16;;;-140.64;100.00
7930;BME280;4010;42.698;23.124;2023-03-01T07:45:36;118349.16;;;-140.64;100.00
7930;BME280;4010;42.698;23.124;2023-03-01T07:48:03;118349.16;;;-140.64;100.00
7930;BME280;4010;42.698;23.124;2023-03-01T07:50:29;118349.16;;;-140.64;100.00
7930;BME280;4010;42.698;23.124;2023-03-01T07:52:56;118349.16;;;-140.64;100.00
7930;BME280;4010;42.698;23.124;2023-03-01T07:55:23;118349.16;;;-140.64;100.00
7930;BME280;4010;42.698;23.124;2023-03-01T07:57:50;118349.16;;;-140.64;100.00
7930;BME280;4010;42.698;23.124;2023-03-01T08:00:17;118349.16;;;-140.64;100.00
7930;BME280;4010;42.698;23.124;2023-03-01T08:02:45;118349.16;;;-140.64;100.00
7930;BME280;4010;42.698;23.124;2023-03-01T08:05:12;118349.16;;;-140.64;100.00
7930;BME280;4010;42.698;23.124;2023-03-01T08:07:38;118349.16;;;-140.64;100.00
7930;BME280;4010;42.698;23.124;2023-03-01T08:10:06;118349.16;;;-140.64;100.00
7930;BME280;4010;42.698;23.124;2023-03-01T08:12:33;118349.16;;;-140.64;100.00
7930;BME280;4010;42.698;23.124;2023-03-01T08:14:59;118349.16;;;-140.64;100.00
7930;BME280;4010;42.698;23.124;2023-03-01T08:17:26;118349.16;;;-140.64;100.00
7930;BME280;4010;42.698;23.124;2023-03-01T08:19:54;118349.16;;;-140.64;100.00
7930;BME280;4010;42.698;23.124;2023-03-01T08:22:21;118349.16;;;-140.64;100.00
7930;BME280;4010;42.698;23.124;2023-03-01T08:24:47;118349.16;;;-140.64;100.00
7930;BME280;4010;42.698;23.124;2023-03-01T08:27:15;118349.16;;;-140.64;100.00
7930;BME280;4010;42.698;23.124;2023-03-01T08:29:41;118349.16;;;-140.64;100.00
7930;BME280;4010;42.698;23.124;2023-03-01T08:32:08;118349.16;;;-140.64;100.00
7930;BME280;4010;42.698;23.124;2023-03-01T08:34:35;118349.16;;;-140.64;100.00
7930;BME280;4010;42.698;23.124;2023-03-01T08:37:03;118349.16;;;-140.64;100.00
7930;BME280;4010;42.698;23.124;2023-03-01T08:39:29;118349.16;;;-140.64;100.00
7930;BME280;4010;42.698;23.124;2023-03-01T08:41:56;118349.16;;;-140.64;100.00
7930;BME280;4010;42.698;23.124;2023-03-01T08:44:23;118349.16;;;-140.64;100.00
7930;BME280;4010;42.698;23.124;2023-03-01T08:46:50;118349.16;;;-140.64;100.00
7930;BME280;4010;42.698;23.124;2023-03-01T08:49:19;118349.16;;;-140.64;99.91
7930;BME280;4010;42.698;23.124;2023-03-01T08:51:47;118349.16;;;-140.64;99.94
7930;BME280;4010;42.698;23.124;2023-03-01T08:54:16;118349.16;;;-140.64;100.00
7930;BME280;4010;42.698;23.124;2023-03-01T08:56:44;118349.16;;;-140.64;99.37
7930;BME280;4010;42.698;23.124;2023-03-01T08:59:11;118349.16;;;-140.64;99.04
7930;BME280;4010;42.698;23.124;2023-03-01T09:01:39;118349.16;;;-140.64;99.30
7930;BME280;4010;42.698;23.124;2023-03-01T09:04:08;118349.16;;;-140.64;99.83
7930;BME280;4010;42.698;23.124;2023-03-01T09:06:35;118349.16;;;-140.64;99.75
7930;BME280;4010;42.698;23.124;2023-03-01T09:09:04;118349.16;;;-140.64;99.20
7930;BME280;4010;42.698;23.124;2023-03-01T09:11:32;118349.16;;;-140.64;98.55
7930;BME280;4010;42.698;23.124;2023-03-01T09:13:59;118349.16;;;-140.64;98.10
7930;BME280;4010;42.698;23.124;2023-03-01T09:16:26;118349.16;;;-140.64;98.32
7930;BME280;4010;42.698;23.124;2023-03-01T09:18:55;118349.16;;;-140.64;97.47
7930;BME280;4010;42.698;23.124;2023-03-01T09:21:23;118349.16;;;-140.64;97.47
7930;BME280;4010;42.698;23.124;2023-03-01T09:23:50;118349.16;;;-140.64;96.41
7930;BME280;4010;42.698;23.124;2023-03-01T09:26:18;118349.16;;;-140.64;95.13
7930;BME280;4010;42.698;23.124;2023-03-01T09:28:49;118349.16;;;-140.64;95.02
7930;BME280;4010;42.698;23.124;2023-03-01T09:31:17;118349.16;;;-140.64;94.58
7930;BME280;4010;42.698;23.124;2023-03-01T09:33:46;118349.16;;;-140.64;94.93
7930;BME280;4010;42.698;23.124;2023-03-01T09:36:15;118349.16;;;-140.64;93.87
7930;BME280;4010;42.698;23.124;2023-03-01T09:38:43;118349.16;;;-140.64;93.84
7930;BME280;4010;42.698;23.124;2023-03-01T09:41:11;118349.16;;;-140.64;92.24
7930;BME280;4010;42.698;23.124;2023-03-01T09:43:48;118349.16;;;-140.64;92.90
7930;BME280;4010;42.698;23.124;2023-03-01T09:46:20;118349.16;;;-140.64;92.62
7930;BME280;4010;42.698;23.124;2023-03-01T09:48:51;118349.16;;;-140.64;92.29
7930;BME280;4010;42.698;23.124;2023-03-01T09:51:25;118349.16;;;-140.64;91.73
7930;BME280;4010;42.698;23.124;2023-03-01T09:53:53;118349.16;;;-140.64;91.07
7930;BME280;4010;42.698;23.124;2023-03-01T09:56:26;118349.16;;;-140.64;91.09
7930;BME280;4010;42.698;23.124;2023-03-01T09:59:02;118349.16;;;-140.64;89.54
7930;BME280;4010;42.698;23.124;2023-03-01T10:01:34;118349.16;;;-140.64;90.24
7930;BME280;4010;42.698;23.124;2023-03-01T10:04:28;118349.16;;;-140.64;89.90
7930;BME280;4010;42.698;23.124;2023-03-01T10:07:15;118349.16;;;-140.64;90.46
7930;BME280;4010;42.698;23.124;2023-03-01T10:09:46;118349.16;;;-140.64;90.66
7930;BME280;4010;42.698;23.124;2023-03-01T10:12:16;118349.16;;;-140.64;90.55
7930;BME280;4010;42.698;23.124;2023-03-01T10:14:52;118349.16;;;-140.64;90.36
7930;BME280;4010;42.698;23.124;2023-03-01T10:17:26;118349.16;;;-140.64;90.86
7930;BME280;4010;42.698;23.124;2023-03-01T10:19:55;118349.16;;;-140.64;89.97
7930;BME280;4010;42.698;23.124;2023-03-01T10:22:25;118349.16;;;-140.64;90.03
7930;BME280;4010;42.698;23.124;2023-03-01T10:24:54;118349.16;;;-140.64;89.64
7930;BME280;4010;42.698;23.124;2023-03-01T10:27:23;118349.16;;;-140.64;90.02
7930;BME280;4010;42.698;23.124;2023-03-01T10:30:09;118349.16;;;-140.64;90.36
7930;BME280;4010;42.698;23.124;2023-03-01T10:32:41;118349.16;;;-140.64;90.38
7930;BME280;4010;42.698;23.124;2023-03-01T10:35:20;118349.16;;;-140.64;90.83
7930;BME280;4010;42.698;23.124;2023-03-01T10:37:57;118349.16;;;-140.64;89.70
7930;BME280;4010;42.698;23.124;2023-03-01T10:40:24;118349.16;;;-140.64;90.27
7930;BME280;4010;42.698;23.124;2023-03-01T10:42:51;118349.16;;;-140.64;90.01
7930;BME280;4010;42.698;23.124;2023-03-01T10:45:31;118349.16;;;-140.64;88.98
7930;BME280;4010;42.698;23.124;2023-03-01T10:48:12;118349.16;;;-140.64;89.74
7930;BME280;4010;42.698;23.124;2023-03-01T10:50:40;118349.16;;;-140.64;90.53
7930;BME280;4010;42.698;23.124;2023-03-01T10:53:21;118349.16;;;-140.64;90.46
7930;BME280;4010;42.698;23.124;2023-03-01T10:55:56;118349.16;;;-140.64;90.38
7930;BME280;4010;42.698;23.124;2023-03-01T10:58:24;118349.16;;;-140.64;90.16
7930;BME280;4010;42.698;23.124;2023-03-01T11:00:53;118349.16;;;-140.64;90.43
7930;BME280;4010;42.698;23.124;2023-03-01T11:03:25;118349.16;;;-140.64;90.39
7930;BME280;4010;42.698;23.124;2023-03-01T11:05:58;118349.16;;;-140.64;89.56
7930;BME280;4010;42.698;23.124;2023-03-01T11:08:37;118349.16;;;-140.64;89.75
7930;BME280;4010;42.698;23.124;2023-03-01T11:11:17;118349.16;;;-140.64;90.20
7930;BME280;4010;42.698;23.124;2023-03-01T11:14:03;118349.16;;;-140.64;91.37
7930;BME280;4010;42.698;23.124;2023-03-01T11:16:35;118349.16;;;-140.64;92.12
7930;BME280;4010;42.698;23.124;2023-03-01T11:19:17;118349.16;;;-140.64;90.91
7930;BME280;4010;42.698;23.124;2023-03-01T11:22:07;118349.16;;;-140.64;90.24
7930;BME280;4010;42.698;23.124;2023-03-01T11:24:40;118349.16;;;-140.64;90.57
7930;BME280;4010;42.698;23.124;2023-03-01T11:27:16;118349.16;;;-140.64;90.52
7930;BME280;4010;42.698;23.124;2023-03-01T11:29:46;118349.16;;;-140.64;89.83
7930;BME280;4010;42.698;23.124;2023-03-01T11:32:19;118349.16;;;-140.64;90.17
7930;BME280;4010;42.698;23.124;2023-03-01T11:34:50;118349.16;;;-140.64;89.55
7930;BME280;4010;42.698;23.124;2023-03-01T11:37:32;118349.16;;;-140.64;88.73
7930;BME280;4010;42.698;23.124;2023-03-01T11:40:11;118349.16;;;-140.64;88.88
7930;BME280;4010;42.698;23.124;2023-03-01T11:42:47;118349.16;;;-140.64;89.48
7930;BME280;4010;42.698;23.124;2023-03-01T11:45:15;118349.16;;;-140.64;88.83
7930;BME280;4010;42.698;23.124;2023-03-01T11:47:58;118349.16;;;-140.64;88.37
7930;BME280;4010;42.698;23.124;2023-03-01T11:50:30;118349.16;;;-140.64;88.48
7930;BME280;4010;42.698;23.124;2023-03-01T11:53:15;118349.16;;;-140.64;88.48
7930;BME280;4010;42.698;23.124;2023-03-01T11:55:55;118349.16;;;-140.64;88.84
7930;BME280;4010;42.698;23.124;2023-03-01T11:58:40;118349.16;;;-140.64;88.89
7930;BME280;4010;42.698;23.124;2023-03-01T12:01:24;118349.16;;;-140.64;89.60
7930;BME280;4010;42.698;23.124;2023-03-01T12:07:01;118349.16;;;-140.64;88.92
7930;BME280;4010;42.698;23.124;2023-03-01T12:09:47;118349.16;;;-140.64;88.18
7930;BME280;4010;42.698;23.124;2023-03-01T12:12:26;118349.16;;;-140.64;88.41
7930;BME280;4010;42.698;23.124;2023-03-01T12:15:17;118349.16;;;-140.64;87.90
7930;BME280;4010;42.698;23.124;2023-03-01T12:17:57;118349.16;;;-140.64;87.83
7930;BME280;4010;42.698;23.124;2023-03-01T12:20:36;118349.16;;;-140.64;86.70
7930;BME280;4010;42.698;23.124;2023-03-01T12:23:33;118349.16;;;-140.64;85.92
7930;BME280;4010;42.698;23.124;2023-03-01T12:26:10;118349.16;;;-140.64;87.05
7930;BME280;4010;42.698;23.124;2023-03-01T12:28:52;118349.16;;;-140.64;86.73
7930;BME280;4010;42.698;23.124;2023-03-01T12:34:26;118349.16;;;-140.64;87.17
7930;BME280;4010;42.698;23.124;2023-03-01T12:37:13;118349.16;;;-140.64;86.87
7930;BME280;4010;42.698;23.124;2023-03-01T12:39:52;118349.16;;;-140.64;87.66
7930;BME280;4010;42.698;23.124;2023-03-01T12:42:31;118349.16;;;-140.64;86.78
7930;BME280;4010;42.698;23.124;2023-03-01T12:45:32;118349.16;;;-140.64;86.40
7930;BME280;4010;42.698;23.124;2023-03-01T12:48:20;118349.16;;;-140.64;85.96
7930;BME280;4010;42.698;23.124;2023-03-01T12:50:52;118349.16;;;-140.64;86.05
7930;BME280;4010;42.698;23.124;2023-03-01T12:53:23;118349.16;;;-140.64;85.94
7930;BME280;4010;42.698;23.124;2023-03-01T12:55:54;118349.16;;;-140.64;86.17
7930;BME280;4010;42.698;23.124;2023-03-01T12:58:26;118349.16;;;-140.64;85.80